createdAt,value
2018-03-15T00:00:44.441Z,12.50
2018-03-15T00:03:19.124Z,12.20
2018-03-15T00:05:47.950Z,12.20
2018-03-15T00:08:16.645Z,12.00
2018-03-15T00:10:45.170Z,12.20
2018-03-15T00:13:14.222Z,12.20
2018-03-15T00:15:43.543Z,12.30
2018-03-15T00:18:12.805Z,12.30
2018-03-15T00:20:42.366Z,12.50
2018-03-15T00:23:12.235Z,12.40
2018-03-15T00:25:41.528Z,12.50
2018-03-15T00:28:10.562Z,12.50
2018-03-15T00:30:41.868Z,12.50
2018-03-15T00:33:10.905Z,12.60
2018-03-15T00:35:39.770Z,12.30
2018-03-15T00:38:08.246Z,12.30
2018-03-15T00:40:36.747Z,12.40
2018-03-15T00:43:05.588Z,12.30
2018-03-15T00:45:34.288Z,12.40
2018-03-15T00:48:02.994Z,12.40
2018-03-15T00:50:31.669Z,12.50
2018-03-15T00:53:00.427Z,12.40
2018-03-15T00:55:29.112Z,12.50
2018-03-15T00:57:58.028Z,12.50
2018-03-15T01:00:26.894Z,12.50
2018-03-15T01:02:55.384Z,12.40
2018-03-15T01:05:23.858Z,12.40
2018-03-15T01:07:52.365Z,12.10
2018-03-15T01:12:54.860Z,12.20
2018-03-15T01:15:23.731Z,12.20
2018-03-15T01:17:52.444Z,12.10
2018-03-15T01:20:21.956Z,12.30
2018-03-15T01:22:50.433Z,12.40
2018-03-15T01:25:19.880Z,12.20
2018-03-15T01:27:50.068Z,12.20
2018-03-15T01:30:19.160Z,12.50
2018-03-15T01:32:47.858Z,12.30
2018-03-15T01:35:16.686Z,12.20
2018-03-15T01:37:48.091Z,12.20
2018-03-15T01:40:17.218Z,12.20
2018-03-15T01:42:47.416Z,12.10
2018-03-15T01:45:18.135Z,12.00
2018-03-15T01:47:49.900Z,11.90
2018-03-15T01:50:19.291Z,11.50
2018-03-15T01:52:48.547Z,11.30
2018-03-15T01:55:17.448Z,11.30
2018-03-15T01:57:47.147Z,10.70
2018-03-15T02:00:15.828Z,10.80
2018-03-15T02:02:44.960Z,10.90
2018-03-15T02:05:13.668Z,10.70
2018-03-15T02:07:43.117Z,10.50
2018-03-15T02:10:12.338Z,10.50
2018-03-15T02:12:41.807Z,10.40
2018-03-15T02:15:10.523Z,10.10
2018-03-15T02:17:39.014Z,10.10
2018-03-15T02:20:08.691Z,10.00
2018-03-15T02:22:37.520Z,9.80
2018-03-15T02:25:07.135Z,9.70
2018-03-15T02:27:35.781Z,9.90
2018-03-15T02:30:05.061Z,9.50
2018-03-15T02:32:33.742Z,9.50
2018-03-15T02:35:02.261Z,9.40
2018-03-15T02:37:31.970Z,9.50
2018-03-15T02:40:00.843Z,9.40
2018-03-15T02:42:29.330Z,9.10
2018-03-15T02:44:57.982Z,8.90
2018-03-15T02:47:27.393Z,8.80
2018-03-15T02:49:56.467Z,8.80
2018-03-15T02:52:25.608Z,8.80
2018-03-15T02:54:54.686Z,9.10
2018-03-15T02:57:23.409Z,8.60
2018-03-15T02:59:52.223Z,8.30
2018-03-15T03:02:21.160Z,8.60
2018-03-15T03:04:51.854Z,8.60
2018-03-15T03:07:22.273Z,8.90
2018-03-15T03:09:53.728Z,8.90
2018-03-15T03:12:22.255Z,8.60
2018-03-15T03:14:50.955Z,8.70
2018-03-15T03:17:20.625Z,8.60
2018-03-15T03:19:50.541Z,8.60
2018-03-15T03:22:19.304Z,8.60
2018-03-15T03:24:49.194Z,8.40
2018-03-15T03:27:18.024Z,8.70
2018-03-15T03:29:47.588Z,8.30
2018-03-15T03:32:16.698Z,8.20
2018-03-15T03:34:45.637Z,8.20
2018-03-15T03:37:14.106Z,8.30
2018-03-15T03:39:42.802Z,8.20
2018-03-15T03:42:11.901Z,8.00
2018-03-15T03:44:41.215Z,7.80
2018-03-15T03:47:09.505Z,7.80
2018-03-15T03:49:37.776Z,8.00
2018-03-15T03:52:06.623Z,8.00
2018-03-15T03:54:34.950Z,7.70
2018-03-15T03:57:03.384Z,7.70
2018-03-15T03:59:31.667Z,7.80
2018-03-15T04:01:59.970Z,7.80
2018-03-15T04:04:28.250Z,7.90
2018-03-15T04:06:56.686Z,7.90
2018-03-15T04:09:25.403Z,7.70
2018-03-15T04:11:54.074Z,7.70
2018-03-15T04:14:23.167Z,7.60
2018-03-15T04:16:51.839Z,7.80
2018-03-15T04:19:20.146Z,7.70
2018-03-15T04:21:48.371Z,7.70
2018-03-15T04:24:17.378Z,7.60
2018-03-15T04:26:47.129Z,7.60
2018-03-15T04:29:15.513Z,7.60
2018-03-15T04:31:44.547Z,7.60
2018-03-15T04:34:13.998Z,7.30
2018-03-15T04:36:42.410Z,7.50
2018-03-15T04:39:11.098Z,7.00
2018-03-15T04:41:39.573Z,7.00
2018-03-15T04:44:08.109Z,7.00
2018-03-15T04:46:37.212Z,7.10
2018-03-15T04:49:05.512Z,6.90
2018-03-15T04:51:33.930Z,6.80
2018-03-15T04:54:02.264Z,6.80
2018-03-15T04:56:31.714Z,6.50
2018-03-15T04:59:00.189Z,6.50
2018-03-15T05:01:29.063Z,6.70
2018-03-15T05:03:57.357Z,6.50
2018-03-15T05:06:25.618Z,6.40
2018-03-15T05:08:53.935Z,6.30
2018-03-15T05:11:22.370Z,6.30
2018-03-15T05:13:50.808Z,6.20
2018-03-15T05:16:19.014Z,6.30
2018-03-15T05:18:48.797Z,6.30
2018-03-15T05:21:17.935Z,6.40
2018-03-15T05:23:46.608Z,6.20
2018-03-15T05:26:16.725Z,6.30
2018-03-15T05:28:45.630Z,6.40
2018-03-15T05:31:14.319Z,6.10
2018-03-15T05:33:42.823Z,5.90
2018-03-15T05:36:11.274Z,5.80
2018-03-15T05:38:39.986Z,5.70
2018-03-15T05:41:08.703Z,5.70
2018-03-15T05:43:37.362Z,5.70
2018-03-15T05:46:06.204Z,5.70
2018-03-15T05:48:35.872Z,5.80
2018-03-15T05:51:04.917Z,5.70
2018-03-15T05:53:33.577Z,5.50
2018-03-15T05:56:02.126Z,5.60
2018-03-15T05:58:31.158Z,5.70
2018-03-15T06:00:59.994Z,5.40
2018-03-15T06:03:28.599Z,5.20
2018-03-15T06:05:57.221Z,5.00
2018-03-15T06:08:26.493Z,5.10
2018-03-15T06:10:55.650Z,5.10
2018-03-15T06:13:24.109Z,5.00
2018-03-15T06:15:52.552Z,5.00
2018-03-15T06:18:21.291Z,5.10
2018-03-15T06:20:50.145Z,4.90
2018-03-15T06:23:18.868Z,4.90
2018-03-15T06:25:47.143Z,5.10
2018-03-15T06:28:16.171Z,4.90
2018-03-15T06:30:44.999Z,5.10
2018-03-15T06:33:13.706Z,4.70
2018-03-15T06:35:42.579Z,4.80
2018-03-15T06:38:12.285Z,4.80
2018-03-15T06:40:42.041Z,4.50
2018-03-15T06:43:11.272Z,4.70
2018-03-15T06:45:40.075Z,4.70
2018-03-15T06:48:09.520Z,4.30
2018-03-15T06:50:38.364Z,4.50
2018-03-15T06:53:07.828Z,4.50
2018-03-15T06:55:36.496Z,4.40
2018-03-15T06:58:05.144Z,4.40
2018-03-15T07:00:34.053Z,4.40
2018-03-15T07:03:02.757Z,4.60
2018-03-15T07:05:31.500Z,4.50
2018-03-15T07:08:00.440Z,4.50
2018-03-15T07:10:28.968Z,4.50
2018-03-15T07:12:58.223Z,4.10
2018-03-15T07:15:27.179Z,4.10
2018-03-15T07:17:55.904Z,4.20
2018-03-15T07:20:24.932Z,4.00
2018-03-15T07:22:53.944Z,4.20
2018-03-15T07:25:23.769Z,4.20
2018-03-15T07:27:52.427Z,4.10
2018-03-15T07:30:21.411Z,4.10
2018-03-15T07:32:51.280Z,3.90
2018-03-15T07:35:20.317Z,4.20
2018-03-15T07:37:49.245Z,4.20
2018-03-15T07:40:18.102Z,3.90
2018-03-15T07:42:47.522Z,3.90
2018-03-15T07:45:16.183Z,3.90
2018-03-15T07:47:45.128Z,3.90
2018-03-15T07:50:14.408Z,3.70
2018-03-15T07:52:43.182Z,3.70
2018-03-15T07:55:12.295Z,3.90
2018-03-15T07:57:41.164Z,3.80
2018-03-15T08:00:10.245Z,3.60
2018-03-15T08:02:39.996Z,3.70
2018-03-15T08:05:09.103Z,3.30
2018-03-15T08:07:37.747Z,3.50
2018-03-15T08:10:06.850Z,3.40
2018-03-15T08:12:35.546Z,3.50
2018-03-15T08:15:04.624Z,3.30
2018-03-15T08:17:34.209Z,3.40
2018-03-15T08:20:03.090Z,3.30
2018-03-15T08:22:32.070Z,3.50
2018-03-15T08:25:00.685Z,3.40
2018-03-15T08:27:29.274Z,3.40
2018-03-15T08:29:57.862Z,3.40
2018-03-15T08:32:26.818Z,3.00
2018-03-15T08:34:55.789Z,3.20
2018-03-15T08:37:24.615Z,2.80
2018-03-15T08:39:53.503Z,2.80
2018-03-15T08:42:22.475Z,2.80
2018-03-15T08:44:51.086Z,2.80
2018-03-15T08:47:20.048Z,3.00
2018-03-15T08:49:49.767Z,2.90
2018-03-15T08:52:19.226Z,2.50
2018-03-15T08:54:48.396Z,2.60
2018-03-15T08:57:18.385Z,2.50
2018-03-15T08:59:47.837Z,2.50
2018-03-15T09:02:16.789Z,2.60
2018-03-15T09:04:46.600Z,2.60
2018-03-15T09:07:15.887Z,2.60
2018-03-15T09:09:44.463Z,2.50
2018-03-15T09:12:13.307Z,2.40
2018-03-15T09:14:41.740Z,2.30
2018-03-15T09:17:10.454Z,2.20
2018-03-15T09:19:39.134Z,2.20
2018-03-15T09:22:08.201Z,2.10
2018-03-15T09:24:37.936Z,2.00
2018-03-15T09:27:06.408Z,2.20
2018-03-15T09:29:35.090Z,2.00
2018-03-15T09:32:03.565Z,2.00
2018-03-15T09:34:32.978Z,2.00
2018-03-15T09:37:02.583Z,2.00
2018-03-15T09:39:31.563Z,2.00
2018-03-15T09:42:00.602Z,1.90
2018-03-15T09:44:29.470Z,1.90
2018-03-15T09:46:58.167Z,2.00
2018-03-15T09:49:27.556Z,1.70
2018-03-15T09:51:56.627Z,1.70
2018-03-15T09:54:25.344Z,1.80
2018-03-15T09:56:54.618Z,1.90
2018-03-15T09:59:23.720Z,1.70
2018-03-15T10:01:53.511Z,1.80
2018-03-15T10:04:23.347Z,1.80
2018-03-15T10:06:52.416Z,1.90
2018-03-15T10:09:21.741Z,1.80
2018-03-15T10:11:50.447Z,1.90
2018-03-15T10:14:20.115Z,1.80
2018-03-15T10:16:48.827Z,1.60
2018-03-15T10:19:17.473Z,1.70
2018-03-15T10:21:46.250Z,1.60
2018-03-15T10:24:14.952Z,1.70
2018-03-15T10:26:44.008Z,1.60
2018-03-15T10:29:13.266Z,1.40
2018-03-15T10:31:42.809Z,1.40
2018-03-15T10:34:11.563Z,1.40
2018-03-15T10:36:40.696Z,1.70
2018-03-15T10:39:09.552Z,1.50
2018-03-15T10:41:38.213Z,1.40
2018-03-15T10:44:07.129Z,1.30
2018-03-15T10:46:35.986Z,1.30
2018-03-15T10:49:05.419Z,1.10
2018-03-15T10:51:34.220Z,1.20
2018-03-15T10:54:02.865Z,1.20
2018-03-15T10:56:31.921Z,1.30
2018-03-15T10:59:00.464Z,1.40
2018-03-15T11:01:29.736Z,1.30
2018-03-15T11:04:04.967Z,1.10
2018-03-15T11:06:39.810Z,1.20
2018-03-15T11:09:25.910Z,1.10
2018-03-15T11:11:54.857Z,1.30
2018-03-15T11:14:24.116Z,1.30
2018-03-15T11:16:52.807Z,1.40
2018-03-15T11:19:21.498Z,1.10
2018-03-15T11:21:50.536Z,1.10
2018-03-15T11:24:19.262Z,1.20
2018-03-15T11:26:48.577Z,1.20
2018-03-15T11:29:17.426Z,1.20
2018-03-15T11:31:46.124Z,1.00
2018-03-15T11:34:14.623Z,1.10
2018-03-15T11:36:43.510Z,0.90
2018-03-15T11:39:12.179Z,1.30
2018-03-15T11:41:41.063Z,1.30
2018-03-15T11:44:10.127Z,1.50
2018-03-15T11:46:38.809Z,1.60
2018-03-15T11:49:07.522Z,1.50
2018-03-15T11:51:36.625Z,1.30
2018-03-15T11:54:05.538Z,1.50
2018-03-15T11:56:35.067Z,1.50
2018-03-15T11:59:04.182Z,1.60
2018-03-15T12:01:33.866Z,1.50
2018-03-15T12:04:02.724Z,1.60
2018-03-15T12:06:31.693Z,1.50
2018-03-15T12:09:00.541Z,1.40
2018-03-15T12:11:29.583Z,1.30
2018-03-15T12:13:58.786Z,1.20
2018-03-15T12:16:28.716Z,1.30
2018-03-15T12:18:57.593Z,1.10
2018-03-15T12:21:26.494Z,1.40
2018-03-15T12:23:55.159Z,1.20
2018-03-15T12:26:23.652Z,1.10
2018-03-15T12:28:52.121Z,0.90
2018-03-15T12:31:20.977Z,1.10
2018-03-15T12:33:50.559Z,1.00
2018-03-15T12:36:19.359Z,1.10
2018-03-15T12:38:48.339Z,1.10
2018-03-15T12:41:17.368Z,1.10
2018-03-15T12:43:46.462Z,0.90
2018-03-15T12:46:16.020Z,0.70
2018-03-15T12:48:44.622Z,0.80
2018-03-15T12:51:13.339Z,0.80
2018-03-15T12:53:42.750Z,1.00
2018-03-15T12:56:11.672Z,1.00
2018-03-15T12:58:40.549Z,1.20
2018-03-15T13:01:09.457Z,1.60
2018-03-15T13:03:38.074Z,1.70
2018-03-15T13:06:06.738Z,1.80
2018-03-15T13:08:36.064Z,1.70
2018-03-15T13:11:05.564Z,2.00
2018-03-15T13:13:36.014Z,2.00
2018-03-15T13:16:05.775Z,2.00
2018-03-15T13:18:34.827Z,2.00
2018-03-15T13:21:03.499Z,2.00
2018-03-15T13:23:32.407Z,2.10
2018-03-15T13:26:01.368Z,2.00
2018-03-15T13:28:30.074Z,2.00
2018-03-15T13:30:58.954Z,2.00
2018-03-15T13:33:27.896Z,2.10
2018-03-15T13:35:56.706Z,2.30
2018-03-15T13:38:25.523Z,2.00
2018-03-15T13:40:55.136Z,2.10
2018-03-15T13:43:23.636Z,2.10
2018-03-15T13:45:52.308Z,2.00
2018-03-15T13:48:21.021Z,2.10
2018-03-15T13:50:50.131Z,2.00
2018-03-15T13:53:19.149Z,2.10
2018-03-15T13:55:48.461Z,1.80
2018-03-15T13:58:17.360Z,1.70
2018-03-15T14:00:46.638Z,1.60
2018-03-15T14:03:16.575Z,1.80
2018-03-15T14:05:45.488Z,1.60
2018-03-15T14:08:14.465Z,1.60
2018-03-15T14:10:43.179Z,1.60
2018-03-15T14:13:11.815Z,1.50
2018-03-15T14:15:40.726Z,1.50
2018-03-15T14:18:09.422Z,1.50
2018-03-15T14:20:38.500Z,1.70
2018-03-15T14:23:07.394Z,1.80
2018-03-15T14:25:35.941Z,1.80
2018-03-15T14:28:05.560Z,1.80
2018-03-15T14:30:34.252Z,1.80
2018-03-15T14:33:03.555Z,1.70
2018-03-15T14:35:32.572Z,1.80
2018-03-15T14:38:01.725Z,2.00
2018-03-15T14:40:30.269Z,1.80
2018-03-15T14:42:59.243Z,2.10
2018-03-15T14:45:27.724Z,2.10
2018-03-15T14:47:56.413Z,2.20
2018-03-15T14:50:25.654Z,2.30
2018-03-15T14:52:54.351Z,2.50
2018-03-15T14:55:22.867Z,2.40
2018-03-15T14:57:51.536Z,2.30
2018-03-15T15:00:20.236Z,2.40
2018-03-15T15:02:48.913Z,2.60
2018-03-15T15:05:17.602Z,2.50
2018-03-15T15:07:46.107Z,2.60
2018-03-15T15:10:15.353Z,2.80
2018-03-15T15:12:45.000Z,2.80
2018-03-15T15:15:13.997Z,2.80
2018-03-15T15:17:42.716Z,3.10
2018-03-15T15:20:12.069Z,3.10
2018-03-15T15:22:40.764Z,3.20
2018-03-15T15:25:09.896Z,3.40
2018-03-15T15:27:39.689Z,3.30
2018-03-15T15:30:08.334Z,3.60
2018-03-15T15:32:37.186Z,3.90
2018-03-15T15:35:06.693Z,3.70
2018-03-15T15:37:35.411Z,3.80
2018-03-15T15:40:04.124Z,4.20
2018-03-15T15:42:33.414Z,4.30
2018-03-15T15:45:03.572Z,4.40
2018-03-15T15:47:33.435Z,4.20
2018-03-15T15:50:02.206Z,4.60
2018-03-15T15:52:31.255Z,4.60
2018-03-15T15:55:00.185Z,4.70
2018-03-15T15:57:29.013Z,4.80
2018-03-15T15:59:57.702Z,4.90
2018-03-15T16:02:26.627Z,4.70
2018-03-15T16:04:55.508Z,5.10
2018-03-15T16:07:24.329Z,4.90
2018-03-15T16:09:53.120Z,5.10
2018-03-15T16:12:21.617Z,5.10
2018-03-15T16:14:50.318Z,5.10
2018-03-15T16:17:19.042Z,5.30
2018-03-15T16:19:48.456Z,5.40
2018-03-15T16:22:16.997Z,5.20
2018-03-15T16:24:45.837Z,5.40
2018-03-15T16:27:14.548Z,5.30
2018-03-15T16:29:43.214Z,5.70
2018-03-15T16:32:11.918Z,5.60
2018-03-15T16:34:41.390Z,5.70
2018-03-15T16:37:10.808Z,5.80
2018-03-15T16:39:40.684Z,5.80
2018-03-15T16:42:10.038Z,5.90
2018-03-15T16:44:38.743Z,6.00
2018-03-15T16:47:07.563Z,6.00
2018-03-15T16:49:36.811Z,6.10
2018-03-15T16:52:05.462Z,6.00
2018-03-15T16:54:35.838Z,6.20
2018-03-15T16:57:04.727Z,6.40
2018-03-15T16:59:33.617Z,6.30
2018-03-15T17:02:02.538Z,6.30
2018-03-15T17:04:31.707Z,6.30
2018-03-15T17:07:00.746Z,6.30
2018-03-15T17:09:30.540Z,6.30
2018-03-15T17:11:59.956Z,6.30
2018-03-15T17:14:28.518Z,6.40
2018-03-15T17:16:57.937Z,6.50
2018-03-15T17:19:26.600Z,6.60
2018-03-15T17:21:56.599Z,6.60
2018-03-15T17:24:25.417Z,6.60
2018-03-15T17:26:54.825Z,6.60
2018-03-15T17:29:24.243Z,6.90
2018-03-15T17:31:52.941Z,6.90
2018-03-15T17:34:21.607Z,6.90
2018-03-15T17:36:50.708Z,7.00
2018-03-15T17:39:19.441Z,7.10
2018-03-15T17:41:48.282Z,7.00
2018-03-15T17:44:16.940Z,7.00
2018-03-15T17:46:46.060Z,7.20
2018-03-15T17:49:14.744Z,7.20
2018-03-15T17:51:43.626Z,7.00
2018-03-15T17:54:12.305Z,7.30
2018-03-15T17:56:40.823Z,7.60
2018-03-15T17:59:09.431Z,7.80
2018-03-15T18:01:38.472Z,7.70
2018-03-15T18:04:06.994Z,7.80
2018-03-15T18:06:36.226Z,7.90
2018-03-15T18:09:05.242Z,8.00
2018-03-15T18:11:34.225Z,8.00
2018-03-15T18:14:03.116Z,8.10
2018-03-15T18:16:31.594Z,8.40
2018-03-15T18:19:00.505Z,8.20
2018-03-15T18:21:29.199Z,8.50
2018-03-15T18:23:57.884Z,8.60
2018-03-15T18:26:26.561Z,8.60
2018-03-15T18:28:55.250Z,8.70
2018-03-15T18:31:24.354Z,8.90
2018-03-15T18:33:52.934Z,9.00
2018-03-15T18:36:22.132Z,9.20
2018-03-15T18:38:50.629Z,9.50
2018-03-15T18:41:19.222Z,9.80
2018-03-15T18:43:47.676Z,9.70
2018-03-15T18:46:16.524Z,10.00
2018-03-15T18:48:45.055Z,10.20
2018-03-15T18:51:13.685Z,10.60
2018-03-15T18:53:42.422Z,10.80
2018-03-15T18:56:11.760Z,11.00
2018-03-15T18:58:40.755Z,11.30
2018-03-15T19:01:12.615Z,11.50
2018-03-15T19:03:39.023Z,11.60
2018-03-15T19:06:07.902Z,11.60
2018-03-15T19:08:36.340Z,11.60
2018-03-15T19:11:05.424Z,11.50
2018-03-15T19:13:34.172Z,11.50
2018-03-15T19:16:03.013Z,11.40
2018-03-15T19:18:31.867Z,11.30
2018-03-15T19:21:00.410Z,11.10
2018-03-15T19:23:29.066Z,10.90
2018-03-15T19:25:58.193Z,11.10
2018-03-15T19:28:26.797Z,10.80
2018-03-15T19:30:55.594Z,10.90
2018-03-15T19:33:25.850Z,11.00
2018-03-15T19:35:54.952Z,11.00
2018-03-15T19:38:23.826Z,11.10
2018-03-15T19:40:52.130Z,11.10
2018-03-15T19:43:21.192Z,11.10
2018-03-15T19:45:50.473Z,11.60
2018-03-15T19:48:19.976Z,11.30
2018-03-15T19:50:48.774Z,11.30
2018-03-15T19:53:17.492Z,11.40
2018-03-15T19:55:46.161Z,11.50
2018-03-15T19:58:16.073Z,12.20
2018-03-15T20:00:44.975Z,12.60
2018-03-15T20:03:13.681Z,12.90
2018-03-15T20:05:42.759Z,13.20
2018-03-15T20:08:11.460Z,13.80
2018-03-15T20:10:40.348Z,13.70
2018-03-15T20:13:09.453Z,13.70
2018-03-15T20:15:43.695Z,13.70
2018-03-15T20:18:12.424Z,13.70
2018-03-15T20:20:41.127Z,13.70
2018-03-15T20:23:15.702Z,13.50
2018-03-15T20:25:44.843Z,13.30
2018-03-15T20:28:19.077Z,13.10
2018-03-15T20:30:48.113Z,13.00
2018-03-15T20:33:22.141Z,12.80
2018-03-15T20:35:51.242Z,12.70
2018-03-15T20:38:20.492Z,12.70
2018-03-15T20:40:54.663Z,12.60
2018-03-15T20:43:23.620Z,12.80
2018-03-15T20:45:57.563Z,12.90
2018-03-15T20:48:32.367Z,13.10
2018-03-15T20:51:01.056Z,13.00
2018-03-15T20:53:29.757Z,12.80
2018-03-15T20:55:58.413Z,12.70
2018-03-15T20:58:26.931Z,12.60
2018-03-15T21:00:55.820Z,12.40
2018-03-15T21:03:24.500Z,12.40
2018-03-15T21:05:53.564Z,12.50
2018-03-15T21:08:22.224Z,12.50
2018-03-15T21:10:51.010Z,12.50
2018-03-15T21:13:20.446Z,12.50
2018-03-15T21:15:49.979Z,12.60
2018-03-15T21:18:18.652Z,12.70
2018-03-15T21:20:47.312Z,12.80
2018-03-15T21:23:15.992Z,13.10
2018-03-15T21:25:44.892Z,12.80
2018-03-15T21:28:14.793Z,12.70
2018-03-15T21:30:45.318Z,12.50
2018-03-15T21:33:14.278Z,12.70
2018-03-15T21:35:43.315Z,12.90
2018-03-15T21:38:12.216Z,12.70
2018-03-15T21:40:41.874Z,12.80
2018-03-15T21:43:10.803Z,12.90
2018-03-15T21:45:39.465Z,13.00
2018-03-15T21:48:08.975Z,13.10
2018-03-15T21:50:37.640Z,13.10
2018-03-15T21:53:07.241Z,13.20
2018-03-15T21:55:36.984Z,13.20
2018-03-15T21:58:06.579Z,13.00
2018-03-15T22:00:35.305Z,13.00
2018-03-15T22:03:05.478Z,13.00
2018-03-15T22:05:34.218Z,13.00
2018-03-15T22:08:03.288Z,13.00
2018-03-15T22:10:31.998Z,12.70
2018-03-15T22:13:00.758Z,12.80
2018-03-15T22:15:29.861Z,12.70
2018-03-15T22:17:58.543Z,12.50
2018-03-15T22:20:27.410Z,12.40
2018-03-15T22:22:56.826Z,12.70
2018-03-15T22:25:25.694Z,12.70
2018-03-15T22:27:54.607Z,12.80
2018-03-15T22:30:23.123Z,12.80
2018-03-15T22:32:51.766Z,12.90
2018-03-15T22:35:20.497Z,12.90
2018-03-15T22:37:49.339Z,12.60
2018-03-15T22:40:18.437Z,12.60
2018-03-15T22:42:48.871Z,12.50
2018-03-15T22:45:18.090Z,12.60
2018-03-15T22:47:46.997Z,12.80
2018-03-15T22:50:15.847Z,12.40
2018-03-15T22:52:45.603Z,12.20
2018-03-15T22:55:14.447Z,12.20
2018-03-15T22:57:43.306Z,12.30
2018-03-15T23:00:12.254Z,12.40
2018-03-15T23:02:40.997Z,12.40
2018-03-15T23:05:09.510Z,12.40
2018-03-15T23:07:38.821Z,12.50
2018-03-15T23:10:08.881Z,12.50
2018-03-15T23:12:37.799Z,12.50
2018-03-15T23:15:06.725Z,12.60
2018-03-15T23:17:36.713Z,12.60
2018-03-15T23:20:06.228Z,12.70
2018-03-15T23:22:35.312Z,12.70
2018-03-15T23:25:04.003Z,12.80
2018-03-15T23:27:33.243Z,12.80
2018-03-15T23:30:01.960Z,12.80
2018-03-15T23:32:31.118Z,12.80
2018-03-15T23:34:59.959Z,12.60
2018-03-15T23:37:28.620Z,12.50
2018-03-15T23:39:57.325Z,12.40
2018-03-15T23:42:26.029Z,12.40
2018-03-15T23:44:54.679Z,12.30
2018-03-15T23:47:24.021Z,12.30
2018-03-15T23:49:52.719Z,12.30
2018-03-15T23:52:21.207Z,12.30
2018-03-15T23:54:50.079Z,12.30
2018-03-15T23:57:18.977Z,12.40
2018-03-15T23:59:48.638Z,12.50
